This is the latest recevied weather packets stored in our database for station/object N8QQQ. If no packets are shown the sender has not sent any weather packets the latest 10 day(s).
| Time | Temp. | Humidity | Pressure | Rain* | Wind** | Luminosity | Snow |
|---|---|---|---|---|---|---|---|
| 1777678414 | 4.44° C | 45% | 1016.8 hPa | 0 mm | - | 34 W/m² | - |
| 1777678109 | 4.44° C | 45% | 1016.7 hPa | 0 mm | - | 40 W/m² | - |
| 1777677807 | 5° C | 44% | 1016.8 hPa | 0 mm | - | 47 W/m² | - |
| 1777677504 | 5.56° C | 40% | 1016.7 hPa | 0 mm | - | 61 W/m² | - |
| 1777677202 | 5.56° C | 40% | 1016.8 hPa | 0 mm | - | 156 W/m² | - |
| 1777676900 | 5.56° C | 41% | 1016.6 hPa | 0 mm | - | 152 W/m² | - |
| 1777676599 | 5.56° C | 42% | 1016.6 hPa | 0 mm | - | 151 W/m² | - |
| 1777676296 | 6.11° C | 40% | 1016.7 hPa | 0 mm | - | 192 W/m² | - |
| 1777675994 | 5.56° C | 44% | 1016.7 hPa | 0 mm | - | 190 W/m² | - |
| 1777675689 | 5° C | 44% | 1016.8 hPa | 0 mm | - | 194 W/m² | - |
| 1777675387 | 4.44° C | 45% | 1016.7 hPa | 0 mm | - | 91 W/m² | - |
| 1777675083 | 3.89° C | 46% | 1016.8 hPa | 0 mm | - | 92 W/m² | - |
| 1777674779 | 4.44° C | 46% | 1017 hPa | 0 mm | - | 82 W/m² | - |
| 1777674476 | 4.44° C | 46% | 1016.7 hPa | 0 mm | - | 93 W/m² | - |
| 1777674174 | 4.44° C | 48% | 1016.8 hPa | 0 mm | - | 75 W/m² | - |
| 1777673870 | 4.44° C | 48% | 1016.8 hPa | 0 mm | - | 76 W/m² | - |
| 1777673567 | 3.89° C | 48% | 1016.6 hPa | 0 mm | - | 140 W/m² | - |
| 1777673264 | 3.89° C | 47% | 1016.7 hPa | 0 mm | - | 54 W/m² | - |
| 1777672962 | 3.89° C | 47% | 1016.5 hPa | 0 mm | - | 45 W/m² | - |
| 1777672659 | 4.44° C | 46% | 1016.6 hPa | 0 mm | - | 59 W/m² | - |
| 1777672353 | 5° C | 46% | 1016.5 hPa | 0 mm | - | 91 W/m² | - |
| 1777672049 | 4.44° C | 47% | 1016.7 hPa | 0 mm | - | 251 W/m² | - |
| 1777671745 | 3.89° C | 48% | 1016.7 hPa | 0 mm | - | 128 W/m² | - |
| 1777671442 | 3.89° C | 49% | 1016.7 hPa | 0 mm | - | 96 W/m² | - |
| 1777671137 | 3.89° C | 52% | 1016.6 hPa | 0 mm | - | 91 W/m² | - |
* Rain latest hour (hover to see other rain measurements)
** Current wind speed in m/s (hover to see current wind gust speed)